sensor_id;sensor_type;location;lat;lon;timestamp;temperature;humidity
72277;SHT30;61204;49.980;8.358;2022-08-19T00:01:56;21.74;67.21
72277;SHT30;61204;49.980;8.358;2022-08-19T00:04:32;21.69;67.23
72277;SHT30;61204;49.980;8.358;2022-08-19T00:07:03;21.65;67.34
72277;SHT30;61204;49.980;8.358;2022-08-19T00:09:32;21.68;67.20
72277;SHT30;61204;49.980;8.358;2022-08-19T00:11:58;21.63;67.43
72277;SHT30;61204;49.980;8.358;2022-08-19T00:14:28;21.62;67.37
72277;SHT30;61204;49.980;8.358;2022-08-19T00:16:57;21.61;67.42
72277;SHT30;61204;49.980;8.358;2022-08-19T00:19:25;21.63;67.16
72277;SHT30;61204;49.980;8.358;2022-08-19T00:21:52;21.66;67.32
72277;SHT30;61204;49.980;8.358;2022-08-19T00:24:18;21.63;67.04
72277;SHT30;61204;49.980;8.358;2022-08-19T00:26:47;21.66;67.44
72277;SHT30;61204;49.980;8.358;2022-08-19T00:29:15;21.62;67.37
72277;SHT30;61204;49.980;8.358;2022-08-19T00:31:44;21.63;67.34
72277;SHT30;61204;49.980;8.358;2022-08-19T00:34:12;21.59;67.60
72277;SHT30;61204;49.980;8.358;2022-08-19T00:36:43;21.62;67.57
72277;SHT30;61204;49.980;8.358;2022-08-19T00:39:10;21.58;67.55
72277;SHT30;61204;49.980;8.358;2022-08-19T00:41:37;21.63;67.50
72277;SHT30;61204;49.980;8.358;2022-08-19T00:44:09;21.61;67.46
72277;SHT30;61204;49.980;8.358;2022-08-19T00:46:41;21.65;67.45
72277;SHT30;61204;49.980;8.358;2022-08-19T00:49:38;21.65;67.24
72277;SHT30;61204;49.980;8.358;2022-08-19T00:52:16;21.62;67.32
72277;SHT30;61204;49.980;8.358;2022-08-19T00:54:55;21.65;67.14
72277;SHT30;61204;49.980;8.358;2022-08-19T00:57:33;21.63;67.11
72277;SHT30;61204;49.980;8.358;2022-08-19T01:00:07;21.72;66.99
72277;SHT30;61204;49.980;8.358;2022-08-19T01:02:39;21.66;67.27
72277;SHT30;61204;49.980;8.358;2022-08-19T01:05:14;21.74;67.11
72277;SHT30;61204;49.980;8.358;2022-08-19T01:07:46;21.68;67.17
72277;SHT30;61204;49.980;8.358;2022-08-19T01:10:18;21.66;67.37
72277;SHT30;61204;49.980;8.358;2022-08-19T01:12:48;21.65;67.39
72277;SHT30;61204;49.980;8.358;2022-08-19T01:15:20;21.57;67.70
72277;SHT30;61204;49.980;8.358;2022-08-19T01:17:53;21.65;67.55
72277;SHT30;61204;49.980;8.358;2022-08-19T01:20:23;21.68;67.45
72277;SHT30;61204;49.980;8.358;2022-08-19T01:22:57;21.61;67.52
72277;SHT30;61204;49.980;8.358;2022-08-19T01:25:32;21.59;67.40
72277;SHT30;61204;49.980;8.358;2022-08-19T01:28:07;21.51;67.90
72277;SHT30;61204;49.980;8.358;2022-08-19T01:30:35;21.44;68.17
72277;SHT30;61204;49.980;8.358;2022-08-19T01:33:02;21.47;67.99
72277;SHT30;61204;49.980;8.358;2022-08-19T01:35:31;21.44;68.23
72277;SHT30;61204;49.980;8.358;2022-08-19T01:38:06;21.37;68.35
72277;SHT30;61204;49.980;8.358;2022-08-19T01:40:36;21.32;68.44
72277;SHT30;61204;49.980;8.358;2022-08-19T01:43:05;21.44;68.19
72277;SHT30;61204;49.980;8.358;2022-08-19T01:45:34;21.38;68.36
72277;SHT30;61204;49.980;8.358;2022-08-19T01:48:01;21.38;68.23
72277;SHT30;61204;49.980;8.358;2022-08-19T01:50:27;21.42;68.04
72277;SHT30;61204;49.980;8.358;2022-08-19T01:52:53;21.37;68.40
72277;SHT30;61204;49.980;8.358;2022-08-19T01:55:21;21.45;68.12
72277;SHT30;61204;49.980;8.358;2022-08-19T01:57:54;21.44;68.26
72277;SHT30;61204;49.980;8.358;2022-08-19T02:00:28;21.48;68.26
72277;SHT30;61204;49.980;8.358;2022-08-19T02:02:56;21.45;68.18
72277;SHT30;61204;49.980;8.358;2022-08-19T02:05:22;21.38;68.39
72277;SHT30;61204;49.980;8.358;2022-08-19T02:07:50;21.34;68.62
72277;SHT30;61204;49.980;8.358;2022-08-19T02:10:21;21.26;68.98
72277;SHT30;61204;49.980;8.358;2022-08-19T02:12:48;21.32;68.51
72277;SHT30;61204;49.980;8.358;2022-08-19T02:15:18;21.35;68.44
72277;SHT30;61204;49.980;8.358;2022-08-19T02:17:48;21.32;68.74
72277;SHT30;61204;49.980;8.358;2022-08-19T02:20:16;21.30;68.98
72277;SHT30;61204;49.980;8.358;2022-08-19T02:22:44;21.28;69.37
72277;SHT30;61204;49.980;8.358;2022-08-19T02:25:12;21.31;69.17
72277;SHT30;61204;49.980;8.358;2022-08-19T02:27:40;21.32;68.89
72277;SHT30;61204;49.980;8.358;2022-08-19T02:30:13;21.34;68.74
72277;SHT30;61204;49.980;8.358;2022-08-19T02:32:42;21.34;68.93
72277;SHT30;61204;49.980;8.358;2022-08-19T02:35:09;21.38;68.71
72277;SHT30;61204;49.980;8.358;2022-08-19T02:37:38;21.35;68.78
72277;SHT30;61204;49.980;8.358;2022-08-19T02:40:22;21.31;68.98
72277;SHT30;61204;49.980;8.358;2022-08-19T02:42:51;21.30;69.05
72277;SHT30;61204;49.980;8.358;2022-08-19T02:45:17;21.32;68.93
72277;SHT30;61204;49.980;8.358;2022-08-19T02:47:43;21.30;69.01
72277;SHT30;61204;49.980;8.358;2022-08-19T02:50:09;21.30;69.05
72277;SHT30;61204;49.980;8.358;2022-08-19T02:52:35;21.28;68.85
72277;SHT30;61204;49.980;8.358;2022-08-19T02:55:04;21.37;68.78
72277;SHT30;61204;49.980;8.358;2022-08-19T02:57:31;21.49;68.24
72277;SHT30;61204;49.980;8.358;2022-08-19T02:59:57;21.45;68.52
72277;SHT30;61204;49.980;8.358;2022-08-19T03:02:23;21.38;68.48
72277;SHT30;61204;49.980;8.358;2022-08-19T03:04:50;21.37;68.82
72277;SHT30;61204;49.980;8.358;2022-08-19T03:07:17;21.48;68.18
72277;SHT30;61204;49.980;8.358;2022-08-19T03:09:45;21.40;68.58
72277;SHT30;61204;49.980;8.358;2022-08-19T03:12:11;21.32;68.70
72277;SHT30;61204;49.980;8.358;2022-08-19T03:14:37;21.27;68.64
72277;SHT30;61204;49.980;8.358;2022-08-19T03:17:04;21.27;69.03
72277;SHT30;61204;49.980;8.358;2022-08-19T03:19:31;21.24;69.06
72277;SHT30;61204;49.980;8.358;2022-08-19T03:21:58;21.34;68.76
72277;SHT30;61204;49.980;8.358;2022-08-19T03:24:24;21.31;68.62
72277;SHT30;61204;49.980;8.358;2022-08-19T03:26:54;21.26;69.04
72277;SHT30;61204;49.980;8.358;2022-08-19T03:29:27;21.17;69.35
72277;SHT30;61204;49.980;8.358;2022-08-19T03:31:54;21.13;69.55
72277;SHT30;61204;49.980;8.358;2022-08-19T03:34:26;21.04;69.80
72277;SHT30;61204;49.980;8.358;2022-08-19T03:36:59;20.96;70.15
72277;SHT30;61204;49.980;8.358;2022-08-19T03:39:29;20.92;70.21
72277;SHT30;61204;49.980;8.358;2022-08-19T03:41:55;20.85;70.42
72277;SHT30;61204;49.980;8.358;2022-08-19T03:44:23;20.85;70.36
72277;SHT30;61204;49.980;8.358;2022-08-19T03:46:56;20.90;69.99
72277;SHT30;61204;49.980;8.358;2022-08-19T03:49:26;20.90;70.19
72277;SHT30;61204;49.980;8.358;2022-08-19T03:51:57;20.87;70.37
72277;SHT30;61204;49.980;8.358;2022-08-19T03:54:27;20.86;70.35
72277;SHT30;61204;49.980;8.358;2022-08-19T03:56:58;20.79;70.64
72277;SHT30;61204;49.980;8.358;2022-08-19T03:59:31;20.72;71.00
72277;SHT30;61204;49.980;8.358;2022-08-19T04:02:02;20.62;71.24
72277;SHT30;61204;49.980;8.358;2022-08-19T04:04:35;20.61;71.32
72277;SHT30;61204;49.980;8.358;2022-08-19T04:07:03;20.52;71.68
72277;SHT30;61204;49.980;8.358;2022-08-19T04:09:30;20.38;72.05
72277;SHT30;61204;49.980;8.358;2022-08-19T04:11:59;20.31;72.17
72277;SHT30;61204;49.980;8.358;2022-08-19T04:14:29;20.30;72.46
72277;SHT30;61204;49.980;8.358;2022-08-19T04:16:59;20.28;72.53
72277;SHT30;61204;49.980;8.358;2022-08-19T04:19:26;20.31;72.41
72277;SHT30;61204;49.980;8.358;2022-08-19T04:21:55;20.16;72.89
72277;SHT30;61204;49.980;8.358;2022-08-19T04:24:23;20.17;72.96
72277;SHT30;61204;49.980;8.358;2022-08-19T04:26:55;20.09;73.50
72277;SHT30;61204;49.980;8.358;2022-08-19T04:29:24;20.04;73.38
72277;SHT30;61204;49.980;8.358;2022-08-19T04:31:54;20.04;73.58
72277;SHT30;61204;49.980;8.358;2022-08-19T04:34:25;20.13;73.42
72277;SHT30;61204;49.980;8.358;2022-08-19T04:36:55;20.06;73.56
72277;SHT30;61204;49.980;8.358;2022-08-19T04:39:27;20.10;73.51
72277;SHT30;61204;49.980;8.358;2022-08-19T04:42:18;20.09;73.44
72277;SHT30;61204;49.980;8.358;2022-08-19T04:45:08;20.06;73.65
72277;SHT30;61204;49.980;8.358;2022-08-19T04:48:08;20.03;73.94
72277;SHT30;61204;49.980;8.358;2022-08-19T04:50:58;19.98;74.03
72277;SHT30;61204;49.980;8.358;2022-08-19T04:53:36;19.96;74.04
72277;SHT30;61204;49.980;8.358;2022-08-19T04:56:13;19.96;74.22
72277;SHT30;61204;49.980;8.358;2022-08-19T04:58:43;20.04;74.47
72277;SHT30;61204;49.980;8.358;2022-08-19T05:01:21;20.07;74.08
72277;SHT30;61204;49.980;8.358;2022-08-19T05:03:49;20.16;74.07
72277;SHT30;61204;49.980;8.358;2022-08-19T05:06:20;20.23;73.91
72277;SHT30;61204;49.980;8.358;2022-08-19T05:08:47;20.35;73.44
72277;SHT30;61204;49.980;8.358;2022-08-19T05:11:23;20.44;73.07
72277;SHT30;61204;49.980;8.358;2022-08-19T05:13:51;20.59;72.60
72277;SHT30;61204;49.980;8.358;2022-08-19T05:16:21;20.73;72.04
72277;SHT30;61204;49.980;8.358;2022-08-19T05:18:48;20.95;71.30
72277;SHT30;61204;49.980;8.358;2022-08-19T05:21:34;21.10;70.99
72277;SHT30;61204;49.980;8.358;2022-08-19T05:24:23;21.37;70.06
72277;SHT30;61204;49.980;8.358;2022-08-19T05:26:51;21.49;69.80
72277;SHT30;61204;49.980;8.358;2022-08-19T05:29:20;21.79;68.89
72277;SHT30;61204;49.980;8.358;2022-08-19T05:31:49;21.78;68.81
72277;SHT30;61204;49.980;8.358;2022-08-19T05:34:18;21.96;68.45
72277;SHT30;61204;49.980;8.358;2022-08-19T05:36:50;22.20;67.60
72277;SHT30;61204;49.980;8.358;2022-08-19T05:39:20;22.48;66.56
72277;SHT30;61204;49.980;8.358;2022-08-19T05:41:52;22.29;67.24
72277;SHT30;61204;49.980;8.358;2022-08-19T05:44:24;22.21;67.35
72277;SHT30;61204;49.980;8.358;2022-08-19T05:46:52;22.09;68.04
72277;SHT30;61204;49.980;8.358;2022-08-19T05:49:22;22.10;67.74
72277;SHT30;61204;49.980;8.358;2022-08-19T05:51:49;22.17;67.67
72277;SHT30;61204;49.980;8.358;2022-08-19T05:54:15;22.27;67.22
72277;SHT30;61204;49.980;8.358;2022-08-19T05:56:43;22.27;67.29
72277;SHT30;61204;49.980;8.358;2022-08-19T05:59:10;22.27;67.28
72277;SHT30;61204;49.980;8.358;2022-08-19T06:01:39;22.27;67.46
72277;SHT30;61204;49.980;8.358;2022-08-19T06:04:08;22.29;67.16
72277;SHT30;61204;49.980;8.358;2022-08-19T06:06:35;22.30;67.43
72277;SHT30;61204;49.980;8.358;2022-08-19T06:09:06;22.41;67.08
72277;SHT30;61204;49.980;8.358;2022-08-19T06:11:49;22.48;67.06
72277;SHT30;61204;49.980;8.358;2022-08-19T06:14:26;22.58;66.82
72277;SHT30;61204;49.980;8.358;2022-08-19T06:16:54;22.69;66.39
72277;SHT30;61204;49.980;8.358;2022-08-19T06:19:22;22.75;66.37
72277;SHT30;61204;49.980;8.358;2022-08-19T06:21:51;22.81;66.47
72277;SHT30;61204;49.980;8.358;2022-08-19T06:24:22;22.96;66.02
72277;SHT30;61204;49.980;8.358;2022-08-19T06:26:52;23.14;65.34
72277;SHT30;61204;49.980;8.358;2022-08-19T06:29:24;23.41;64.02
72277;SHT30;61204;49.980;8.358;2022-08-19T06:31:54;23.40;64.41
72277;SHT30;61204;49.980;8.358;2022-08-19T06:34:23;23.61;63.96
72277;SHT30;61204;49.980;8.358;2022-08-19T06:36:52;23.99;63.06
72277;SHT30;61204;49.980;8.358;2022-08-19T06:39:25;24.16;62.36
72277;SHT30;61204;49.980;8.358;2022-08-19T06:42:00;24.54;61.60
72277;SHT30;61204;49.980;8.358;2022-08-19T06:44:30;24.58;61.33
72277;SHT30;61204;49.980;8.358;2022-08-19T06:47:05;24.38;62.10
72277;SHT30;61204;49.980;8.358;2022-08-19T06:49:35;24.43;62.46
72277;SHT30;61204;49.980;8.358;2022-08-19T06:52:05;24.67;61.44
72277;SHT30;61204;49.980;8.358;2022-08-19T06:54:32;24.86;61.36
72277;SHT30;61204;49.980;8.358;2022-08-19T06:57:00;25.16;60.77
72277;SHT30;61204;49.980;8.358;2022-08-19T06:59:31;25.48;60.06
72277;SHT30;61204;49.980;8.358;2022-08-19T07:02:02;25.80;59.18
72277;SHT30;61204;49.980;8.358;2022-08-19T07:04:32;26.08;58.23
72277;SHT30;61204;49.980;8.358;2022-08-19T07:07:10;26.58;56.64
72277;SHT30;61204;49.980;8.358;2022-08-19T07:09:43;26.77;56.10
72277;SHT30;61204;49.980;8.358;2022-08-19T07:12:13;27.08;55.48
72277;SHT30;61204;49.980;8.358;2022-08-19T07:14:43;27.76;53.26
72277;SHT30;61204;49.980;8.358;2022-08-19T07:17:13;28.02;52.75
72277;SHT30;61204;49.980;8.358;2022-08-19T07:19:42;27.91;52.98
72277;SHT30;61204;49.980;8.358;2022-08-19T07:22:12;28.16;52.40
72277;SHT30;61204;49.980;8.358;2022-08-19T07:24:39;28.40;52.22
72277;SHT30;61204;49.980;8.358;2022-08-19T07:27:19;28.75;50.99
72277;SHT30;61204;49.980;8.358;2022-08-19T07:29:46;28.92;50.53
72277;SHT30;61204;49.980;8.358;2022-08-19T07:32:12;28.79;50.88
72277;SHT30;61204;49.980;8.358;2022-08-19T07:34:38;28.84;50.81
72277;SHT30;61204;49.980;8.358;2022-08-19T07:37:06;29.16;49.63
72277;SHT30;61204;49.980;8.358;2022-08-19T07:39:36;29.22;50.37
72277;SHT30;61204;49.980;8.358;2022-08-19T07:42:08;29.16;49.59
72277;SHT30;61204;49.980;8.358;2022-08-19T07:44:37;28.92;49.95
72277;SHT30;61204;49.980;8.358;2022-08-19T07:47:04;29.39;49.12
72277;SHT30;61204;49.980;8.358;2022-08-19T07:49:31;29.63;48.81
72277;SHT30;61204;49.980;8.358;2022-08-19T07:52:02;29.43;48.68
72277;SHT30;61204;49.980;8.358;2022-08-19T07:54:35;29.92;47.65
72277;SHT30;61204;49.980;8.358;2022-08-19T07:57:04;29.89;47.30
72277;SHT30;61204;49.980;8.358;2022-08-19T07:59:31;30.04;47.15
72277;SHT30;61204;49.980;8.358;2022-08-19T08:01:58;30.63;46.10
72277;SHT30;61204;49.980;8.358;2022-08-19T08:04:30;30.75;45.89
72277;SHT30;61204;49.980;8.358;2022-08-19T08:07:15;30.87;45.30
72277;SHT30;61204;49.980;8.358;2022-08-19T08:10:00;31.32;44.84
72277;SHT30;61204;49.980;8.358;2022-08-19T08:12:36;31.30;44.47
72277;SHT30;61204;49.980;8.358;2022-08-19T08:15:13;31.19;44.25
72277;SHT30;61204;49.980;8.358;2022-08-19T08:17:45;31.49;43.96
72277;SHT30;61204;49.980;8.358;2022-08-19T08:20:19;31.22;44.35
72277;SHT30;61204;49.980;8.358;2022-08-19T08:22:48;31.22;44.28
72277;SHT30;61204;49.980;8.358;2022-08-19T08:25:35;31.49;43.99
72277;SHT30;61204;49.980;8.358;2022-08-19T08:28:04;31.47;43.97
72277;SHT30;61204;49.980;8.358;2022-08-19T08:30:33;31.22;44.04
72277;SHT30;61204;49.980;8.358;2022-08-19T08:33:01;30.90;44.90
72277;SHT30;61204;49.980;8.358;2022-08-19T08:35:27;30.87;45.14
72277;SHT30;61204;49.980;8.358;2022-08-19T08:37:54;30.59;45.76
72277;SHT30;61204;49.980;8.358;2022-08-19T08:40:50;30.47;45.70
72277;SHT30;61204;49.980;8.358;2022-08-19T08:43:44;30.49;46.03
72277;SHT30;61204;49.980;8.358;2022-08-19T08:46:49;29.89;46.97
72277;SHT30;61204;49.980;8.358;2022-08-19T08:50:43;29.82;47.13
72277;SHT30;61204;49.980;8.358;2022-08-19T08:53:37;30.00;46.62
72277;SHT30;61204;49.980;8.358;2022-08-19T08:56:08;29.94;46.85
72277;SHT30;61204;49.980;8.358;2022-08-19T08:58:56;29.68;46.90
72277;SHT30;61204;49.980;8.358;2022-08-19T09:01:36;29.80;47.12
72277;SHT30;61204;49.980;8.358;2022-08-19T09:04:10;29.46;47.37
72277;SHT30;61204;49.980;8.358;2022-08-19T09:07:29;29.20;47.59
72277;SHT30;61204;49.980;8.358;2022-08-19T09:11:34;29.43;47.19
72277;SHT30;61204;49.980;8.358;2022-08-19T09:15:01;30.29;46.01
72277;SHT30;61204;49.980;8.358;2022-08-19T09:18:44;31.57;43.89
72277;SHT30;61204;49.980;8.358;2022-08-19T09:22:13;32.00;42.52
